sensor_id;sensor_type;location;lat;lon;timestamp;P1;durP1;ratioP1;P2;durP2;ratioP2
53977;SDS011;39886;47.984;-1.586;2023-08-30T00:00:43;1.95;;;1.40;;
53977;SDS011;39886;47.984;-1.586;2023-08-30T00:03:10;1.67;;;1.38;;
53977;SDS011;39886;47.984;-1.586;2023-08-30T00:05:40;1.70;;;1.60;;
53977;SDS011;39886;47.984;-1.586;2023-08-30T00:08:06;3.05;;;1.77;;
53977;SDS011;39886;47.984;-1.586;2023-08-30T00:10:32;2.63;;;1.50;;
53977;SDS011;39886;47.984;-1.586;2023-08-30T00:12:58;1.48;;;1.38;;
53977;SDS011;39886;47.984;-1.586;2023-08-30T00:15:24;1.92;;;1.60;;
53977;SDS011;39886;47.984;-1.586;2023-08-30T00:17:50;1.95;;;1.50;;
53977;SDS011;39886;47.984;-1.586;2023-08-30T00:20:19;2.65;;;1.75;;
53977;SDS011;39886;47.984;-1.586;2023-08-30T00:22:46;2.10;;;1.63;;
53977;SDS011;39886;47.984;-1.586;2023-08-30T00:25:13;1.90;;;1.70;;
53977;SDS011;39886;47.984;-1.586;2023-08-30T00:27:39;1.98;;;1.58;;
53977;SDS011;39886;47.984;-1.586;2023-08-30T00:30:05;1.98;;;1.50;;
53977;SDS011;39886;47.984;-1.586;2023-08-30T00:32:33;1.67;;;1.48;;
53977;SDS011;39886;47.984;-1.586;2023-08-30T00:34:59;1.98;;;1.60;;
53977;SDS011;39886;47.984;-1.586;2023-08-30T00:37:24;1.63;;;1.52;;
53977;SDS011;39886;47.984;-1.586;2023-08-30T00:39:50;1.88;;;1.63;;
53977;SDS011;39886;47.984;-1.586;2023-08-30T00:42:16;2.15;;;1.83;;
53977;SDS011;39886;47.984;-1.586;2023-08-30T00:44:41;2.03;;;1.60;;
53977;SDS011;39886;47.984;-1.586;2023-08-30T00:47:07;1.83;;;1.63;;
53977;SDS011;39886;47.984;-1.586;2023-08-30T00:49:33;2.13;;;1.65;;
53977;SDS011;39886;47.984;-1.586;2023-08-30T00:52:00;2.13;;;1.70;;
53977;SDS011;39886;47.984;-1.586;2023-08-30T00:54:28;2.45;;;1.63;;
53977;SDS011;39886;47.984;-1.586;2023-08-30T00:56:54;1.58;;;1.35;;
53977;SDS011;39886;47.984;-1.586;2023-08-30T00:59:20;2.42;;;1.60;;
53977;SDS011;39886;47.984;-1.586;2023-08-30T01:01:47;2.60;;;1.67;;
53977;SDS011;39886;47.984;-1.586;2023-08-30T01:04:13;2.00;;;1.77;;
53977;SDS011;39886;47.984;-1.586;2023-08-30T01:06:39;1.60;;;1.50;;
53977;SDS011;39886;47.984;-1.586;2023-08-30T01:09:05;1.70;;;1.60;;
53977;SDS011;39886;47.984;-1.586;2023-08-30T01:14:20;1.65;;;1.52;;
53977;SDS011;39886;47.984;-1.586;2023-08-30T01:16:47;1.63;;;1.52;;
53977;SDS011;39886;47.984;-1.586;2023-08-30T01:22:09;2.03;;;1.70;;
53977;SDS011;39886;47.984;-1.586;2023-08-30T01:28:01;1.63;;;1.52;;
53977;SDS011;39886;47.984;-1.586;2023-08-30T01:30:30;1.58;;;1.42;;
53977;SDS011;39886;47.984;-1.586;2023-08-30T01:33:02;2.13;;;1.77;;
53977;SDS011;39886;47.984;-1.586;2023-08-30T01:35:29;2.20;;;1.80;;
53977;SDS011;39886;47.984;-1.586;2023-08-30T01:38:01;2.58;;;1.98;;
53977;SDS011;39886;47.984;-1.586;2023-08-30T01:43:02;1.95;;;1.50;;
53977;SDS011;39886;47.984;-1.586;2023-08-30T01:45:30;2.13;;;1.92;;
53977;SDS011;39886;47.984;-1.586;2023-08-30T01:47:59;3.58;;;1.88;;
53977;SDS011;39886;47.984;-1.586;2023-08-30T01:50:26;1.60;;;1.50;;
53977;SDS011;39886;47.984;-1.586;2023-08-30T01:52:52;2.28;;;1.67;;
53977;SDS011;39886;47.984;-1.586;2023-08-30T01:55:20;1.80;;;1.70;;
53977;SDS011;39886;47.984;-1.586;2023-08-30T01:57:46;2.75;;;1.95;;
53977;SDS011;39886;47.984;-1.586;2023-08-30T02:00:12;1.80;;;1.60;;
53977;SDS011;39886;47.984;-1.586;2023-08-30T02:02:38;2.28;;;1.58;;
53977;SDS011;39886;47.984;-1.586;2023-08-30T02:05:04;2.03;;;1.67;;
53977;SDS011;39886;47.984;-1.586;2023-08-30T02:07:34;4.35;;;1.70;;
53977;SDS011;39886;47.984;-1.586;2023-08-30T02:10:06;1.85;;;1.63;;
53977;SDS011;39886;47.984;-1.586;2023-08-30T02:12:37;2.03;;;1.60;;
53977;SDS011;39886;47.984;-1.586;2023-08-30T02:15:09;2.22;;;1.70;;
53977;SDS011;39886;47.984;-1.586;2023-08-30T02:17:37;1.50;;;1.40;;
53977;SDS011;39886;47.984;-1.586;2023-08-30T02:20:04;1.90;;;1.70;;
53977;SDS011;39886;47.984;-1.586;2023-08-30T02:22:32;1.77;;;1.38;;
53977;SDS011;39886;47.984;-1.586;2023-08-30T02:24:58;1.60;;;1.50;;
53977;SDS011;39886;47.984;-1.586;2023-08-30T02:27:24;2.33;;;1.67;;
53977;SDS011;39886;47.984;-1.586;2023-08-30T02:29:50;2.05;;;1.58;;
53977;SDS011;39886;47.984;-1.586;2023-08-30T02:32:15;1.88;;;1.60;;
53977;SDS011;39886;47.984;-1.586;2023-08-30T02:34:45;1.83;;;1.58;;
53977;SDS011;39886;47.984;-1.586;2023-08-30T02:37:15;1.55;;;1.45;;
53977;SDS011;39886;47.984;-1.586;2023-08-30T02:39:41;1.83;;;1.40;;
53977;SDS011;39886;47.984;-1.586;2023-08-30T02:42:07;2.83;;;1.77;;
53977;SDS011;39886;47.984;-1.586;2023-08-30T02:44:33;2.08;;;1.50;;
53977;SDS011;39886;47.984;-1.586;2023-08-30T02:46:58;1.85;;;1.50;;
53977;SDS011;39886;47.984;-1.586;2023-08-30T02:49:24;1.65;;;1.50;;
53977;SDS011;39886;47.984;-1.586;2023-08-30T02:51:50;2.13;;;1.60;;
53977;SDS011;39886;47.984;-1.586;2023-08-30T02:54:16;1.92;;;1.67;;
53977;SDS011;39886;47.984;-1.586;2023-08-30T02:56:42;2.13;;;1.40;;
53977;SDS011;39886;47.984;-1.586;2023-08-30T02:59:09;1.45;;;1.30;;
53977;SDS011;39886;47.984;-1.586;2023-08-30T03:01:36;1.73;;;1.45;;
53977;SDS011;39886;47.984;-1.586;2023-08-30T03:04:04;1.60;;;1.50;;
53977;SDS011;39886;47.984;-1.586;2023-08-30T03:06:32;1.50;;;1.40;;
53977;SDS011;39886;47.984;-1.586;2023-08-30T03:08:58;1.60;;;1.50;;
53977;SDS011;39886;47.984;-1.586;2023-08-30T03:11:23;1.77;;;1.40;;
53977;SDS011;39886;47.984;-1.586;2023-08-30T03:13:49;1.70;;;1.60;;
53977;SDS011;39886;47.984;-1.586;2023-08-30T03:16:16;1.80;;;1.60;;
53977;SDS011;39886;47.984;-1.586;2023-08-30T03:18:43;1.67;;;1.50;;
53977;SDS011;39886;47.984;-1.586;2023-08-30T03:21:09;1.70;;;1.60;;
53977;SDS011;39886;47.984;-1.586;2023-08-30T03:23:35;1.63;;;1.50;;
53977;SDS011;39886;47.984;-1.586;2023-08-30T03:26:14;2.75;;;1.70;;
53977;SDS011;39886;47.984;-1.586;2023-08-30T03:28:41;1.75;;;1.50;;
53977;SDS011;39886;47.984;-1.586;2023-08-30T03:31:14;2.47;;;1.77;;
53977;SDS011;39886;47.984;-1.586;2023-08-30T03:33:40;1.60;;;1.50;;
53977;SDS011;39886;47.984;-1.586;2023-08-30T03:36:10;1.92;;;1.33;;
53977;SDS011;39886;47.984;-1.586;2023-08-30T03:38:36;2.10;;;1.60;;
53977;SDS011;39886;47.984;-1.586;2023-08-30T03:41:03;1.98;;;1.50;;
53977;SDS011;39886;47.984;-1.586;2023-08-30T03:43:29;1.92;;;1.50;;
53977;SDS011;39886;47.984;-1.586;2023-08-30T03:45:55;1.48;;;1.35;;
53977;SDS011;39886;47.984;-1.586;2023-08-30T03:48:21;2.42;;;1.33;;
53977;SDS011;39886;47.984;-1.586;2023-08-30T03:50:47;1.92;;;1.50;;
53977;SDS011;39886;47.984;-1.586;2023-08-30T03:53:13;1.98;;;1.58;;
53977;SDS011;39886;47.984;-1.586;2023-08-30T03:55:38;1.95;;;1.55;;
53977;SDS011;39886;47.984;-1.586;2023-08-30T03:58:05;1.80;;;1.30;;
53977;SDS011;39886;47.984;-1.586;2023-08-30T04:00:31;1.83;;;1.58;;
53977;SDS011;39886;47.984;-1.586;2023-08-30T04:02:56;1.65;;;1.42;;
53977;SDS011;39886;47.984;-1.586;2023-08-30T04:05:22;1.65;;;1.50;;
53977;SDS011;39886;47.984;-1.586;2023-08-30T04:07:48;2.10;;;1.50;;
53977;SDS011;39886;47.984;-1.586;2023-08-30T04:10:13;1.60;;;1.50;;
53977;SDS011;39886;47.984;-1.586;2023-08-30T04:12:39;1.50;;;1.40;;
53977;SDS011;39886;47.984;-1.586;2023-08-30T04:15:05;1.33;;;1.10;;
53977;SDS011;39886;47.984;-1.586;2023-08-30T04:17:31;1.95;;;1.48;;
53977;SDS011;39886;47.984;-1.586;2023-08-30T04:19:57;1.70;;;1.40;;
53977;SDS011;39886;47.984;-1.586;2023-08-30T04:22:22;2.13;;;1.48;;
53977;SDS011;39886;47.984;-1.586;2023-08-30T04:24:48;1.80;;;1.45;;
53977;SDS011;39886;47.984;-1.586;2023-08-30T04:27:14;1.50;;;1.40;;
53977;SDS011;39886;47.984;-1.586;2023-08-30T04:29:40;1.80;;;1.30;;
53977;SDS011;39886;47.984;-1.586;2023-08-30T04:32:09;1.35;;;1.25;;
53977;SDS011;39886;47.984;-1.586;2023-08-30T04:34:35;1.30;;;1.20;;
53977;SDS011;39886;47.984;-1.586;2023-08-30T04:37:01;1.70;;;1.50;;
53977;SDS011;39886;47.984;-1.586;2023-08-30T04:39:28;1.42;;;1.33;;
53977;SDS011;39886;47.984;-1.586;2023-08-30T04:41:53;1.58;;;1.40;;
53977;SDS011;39886;47.984;-1.586;2023-08-30T04:44:20;2.10;;;1.52;;
53977;SDS011;39886;47.984;-1.586;2023-08-30T04:46:49;1.63;;;1.40;;
53977;SDS011;39886;47.984;-1.586;2023-08-30T04:49:17;1.42;;;1.33;;
53977;SDS011;39886;47.984;-1.586;2023-08-30T04:51:42;1.52;;;1.42;;
53977;SDS011;39886;47.984;-1.586;2023-08-30T04:54:08;1.30;;;1.20;;
53977;SDS011;39886;47.984;-1.586;2023-08-30T04:56:34;1.92;;;1.67;;
53977;SDS011;39886;47.984;-1.586;2023-08-30T04:59:00;2.20;;;1.35;;
53977;SDS011;39886;47.984;-1.586;2023-08-30T05:01:29;1.35;;;1.25;;
53977;SDS011;39886;47.984;-1.586;2023-08-30T05:03:55;1.48;;;1.30;;
53977;SDS011;39886;47.984;-1.586;2023-08-30T05:06:21;1.58;;;1.48;;
53977;SDS011;39886;47.984;-1.586;2023-08-30T05:08:46;1.60;;;1.20;;
53977;SDS011;39886;47.984;-1.586;2023-08-30T05:11:12;1.33;;;1.20;;
53977;SDS011;39886;47.984;-1.586;2023-08-30T05:13:38;1.20;;;1.10;;
53977;SDS011;39886;47.984;-1.586;2023-08-30T05:16:04;2.42;;;1.52;;
53977;SDS011;39886;47.984;-1.586;2023-08-30T05:18:30;1.77;;;1.48;;
53977;SDS011;39886;47.984;-1.586;2023-08-30T05:20:56;2.00;;;1.35;;
53977;SDS011;39886;47.984;-1.586;2023-08-30T05:23:21;1.52;;;1.35;;
53977;SDS011;39886;47.984;-1.586;2023-08-30T05:25:47;1.38;;;1.27;;
53977;SDS011;39886;47.984;-1.586;2023-08-30T05:28:13;1.35;;;1.20;;
53977;SDS011;39886;47.984;-1.586;2023-08-30T05:30:41;1.85;;;1.50;;
53977;SDS011;39886;47.984;-1.586;2023-08-30T05:33:08;1.73;;;1.40;;
53977;SDS011;39886;47.984;-1.586;2023-08-30T05:35:34;1.60;;;1.30;;
53977;SDS011;39886;47.984;-1.586;2023-08-30T05:37:59;1.60;;;1.30;;
53977;SDS011;39886;47.984;-1.586;2023-08-30T05:40:25;1.35;;;1.25;;
53977;SDS011;39886;47.984;-1.586;2023-08-30T05:42:51;1.98;;;1.42;;
53977;SDS011;39886;47.984;-1.586;2023-08-30T05:45:17;1.30;;;1.20;;
53977;SDS011;39886;47.984;-1.586;2023-08-30T05:47:42;2.45;;;1.40;;
53977;SDS011;39886;47.984;-1.586;2023-08-30T05:50:08;1.65;;;1.40;;
53977;SDS011;39886;47.984;-1.586;2023-08-30T05:52:34;1.63;;;1.30;;
53977;SDS011;39886;47.984;-1.586;2023-08-30T05:55:00;1.55;;;1.30;;
53977;SDS011;39886;47.984;-1.586;2023-08-30T05:57:26;1.83;;;1.20;;
53977;SDS011;39886;47.984;-1.586;2023-08-30T05:59:53;1.42;;;1.33;;
53977;SDS011;39886;47.984;-1.586;2023-08-30T06:02:19;2.03;;;1.40;;
53977;SDS011;39886;47.984;-1.586;2023-08-30T06:04:45;1.48;;;1.33;;
53977;SDS011;39886;47.984;-1.586;2023-08-30T06:07:11;1.60;;;1.10;;
53977;SDS011;39886;47.984;-1.586;2023-08-30T06:09:36;1.40;;;1.20;;
53977;SDS011;39886;47.984;-1.586;2023-08-30T06:12:02;3.03;;;1.10;;
53977;SDS011;39886;47.984;-1.586;2023-08-30T06:14:28;1.55;;;1.35;;
53977;SDS011;39886;47.984;-1.586;2023-08-30T06:16:54;1.50;;;1.40;;
53977;SDS011;39886;47.984;-1.586;2023-08-30T06:19:20;1.80;;;1.13;;
53977;SDS011;39886;47.984;-1.586;2023-08-30T06:21:45;1.65;;;1.27;;
53977;SDS011;39886;47.984;-1.586;2023-08-30T06:24:11;1.45;;;1.25;;
53977;SDS011;39886;47.984;-1.586;2023-08-30T06:26:37;1.77;;;1.48;;
53977;SDS011;39886;47.984;-1.586;2023-08-30T06:29:02;2.60;;;1.40;;
53977;SDS011;39886;47.984;-1.586;2023-08-30T06:31:28;1.30;;;1.15;;
53977;SDS011;39886;47.984;-1.586;2023-08-30T06:33:54;1.20;;;1.10;;
53977;SDS011;39886;47.984;-1.586;2023-08-30T06:36:20;1.67;;;1.20;;
53977;SDS011;39886;47.984;-1.586;2023-08-30T06:38:48;1.30;;;1.20;;
53977;SDS011;39886;47.984;-1.586;2023-08-30T06:41:14;2.55;;;1.65;;
53977;SDS011;39886;47.984;-1.586;2023-08-30T06:43:39;0.98;;;0.98;;
53977;SDS011;39886;47.984;-1.586;2023-08-30T06:46:05;1.38;;;1.27;;
53977;SDS011;39886;47.984;-1.586;2023-08-30T06:48:31;1.50;;;1.30;;
53977;SDS011;39886;47.984;-1.586;2023-08-30T06:50:57;2.28;;;1.50;;
53977;SDS011;39886;47.984;-1.586;2023-08-30T06:53:24;1.48;;;1.20;;
53977;SDS011;39886;47.984;-1.586;2023-08-30T06:55:56;3.22;;;1.70;;
53977;SDS011;39886;47.984;-1.586;2023-08-30T06:58:23;1.33;;;1.20;;
53977;SDS011;39886;47.984;-1.586;2023-08-30T07:00:48;1.83;;;1.15;;
53977;SDS011;39886;47.984;-1.586;2023-08-30T07:03:14;1.48;;;1.20;;
53977;SDS011;39886;47.984;-1.586;2023-08-30T07:05:40;1.52;;;1.20;;
53977;SDS011;39886;47.984;-1.586;2023-08-30T07:08:05;1.85;;;1.27;;
53977;SDS011;39886;47.984;-1.586;2023-08-30T07:10:33;1.67;;;1.10;;
53977;SDS011;39886;47.984;-1.586;2023-08-30T07:12:59;2.15;;;1.13;;
53977;SDS011;39886;47.984;-1.586;2023-08-30T07:15:25;1.23;;;1.10;;
53977;SDS011;39886;47.984;-1.586;2023-08-30T07:17:50;4.03;;;1.27;;
53977;SDS011;39886;47.984;-1.586;2023-08-30T07:20:16;2.60;;;1.35;;
53977;SDS011;39886;47.984;-1.586;2023-08-30T07:22:42;2.72;;;1.17;;
53977;SDS011;39886;47.984;-1.586;2023-08-30T07:25:08;1.67;;;1.20;;
53977;SDS011;39886;47.984;-1.586;2023-08-30T07:27:35;2.22;;;1.13;;
53977;SDS011;39886;47.984;-1.586;2023-08-30T07:30:02;2.90;;;1.40;;
53977;SDS011;39886;47.984;-1.586;2023-08-30T07:32:29;1.67;;;1.10;;
53977;SDS011;39886;47.984;-1.586;2023-08-30T07:34:55;1.40;;;1.20;;
53977;SDS011;39886;47.984;-1.586;2023-08-30T07:37:21;3.50;;;1.30;;
53977;SDS011;39886;47.984;-1.586;2023-08-30T07:39:47;2.78;;;1.27;;
53977;SDS011;39886;47.984;-1.586;2023-08-30T07:42:13;4.85;;;1.00;;
53977;SDS011;39886;47.984;-1.586;2023-08-30T07:44:40;1.55;;;1.30;;
53977;SDS011;39886;47.984;-1.586;2023-08-30T07:47:06;2.30;;;1.20;;
53977;SDS011;39886;47.984;-1.586;2023-08-30T07:49:31;5.45;;;1.30;;
53977;SDS011;39886;47.984;-1.586;2023-08-30T07:51:57;1.33;;;1.10;;
53977;SDS011;39886;47.984;-1.586;2023-08-30T07:54:23;1.30;;;1.20;;
53977;SDS011;39886;47.984;-1.586;2023-08-30T07:56:49;1.77;;;1.35;;
53977;SDS011;39886;47.984;-1.586;2023-08-30T07:59:14;2.30;;;1.40;;
53977;SDS011;39886;47.984;-1.586;2023-08-30T08:01:40;2.55;;;1.30;;
53977;SDS011;39886;47.984;-1.586;2023-08-30T08:04:06;2.20;;;1.20;;
53977;SDS011;39886;47.984;-1.586;2023-08-30T08:06:32;1.73;;;1.30;;
53977;SDS011;39886;47.984;-1.586;2023-08-30T08:08:58;1.52;;;1.20;;
53977;SDS011;39886;47.984;-1.586;2023-08-30T08:11:23;1.92;;;1.33;;
53977;SDS011;39886;47.984;-1.586;2023-08-30T08:13:49;2.88;;;1.35;;
53977;SDS011;39886;47.984;-1.586;2023-08-30T08:16:15;2.88;;;1.20;;
53977;SDS011;39886;47.984;-1.586;2023-08-30T08:18:41;3.70;;;1.10;;
53977;SDS011;39886;47.984;-1.586;2023-08-30T08:21:06;1.70;;;1.50;;
53977;SDS011;39886;47.984;-1.586;2023-08-30T08:23:32;1.25;;;1.13;;
53977;SDS011;39886;47.984;-1.586;2023-08-30T08:25:58;1.45;;;1.20;;
53977;SDS011;39886;47.984;-1.586;2023-08-30T08:28:24;2.10;;;1.15;;
53977;SDS011;39886;47.984;-1.586;2023-08-30T08:30:50;3.20;;;1.40;;
53977;SDS011;39886;47.984;-1.586;2023-08-30T08:33:16;2.22;;;1.30;;
53977;SDS011;39886;47.984;-1.586;2023-08-30T08:35:43;10.40;;;1.83;;
53977;SDS011;39886;47.984;-1.586;2023-08-30T08:38:09;1.75;;;1.23;;
53977;SDS011;39886;47.984;-1.586;2023-08-30T08:40:38;2.50;;;1.30;;
53977;SDS011;39886;47.984;-1.586;2023-08-30T08:43:05;4.68;;;1.27;;
53977;SDS011;39886;47.984;-1.586;2023-08-30T08:45:32;3.08;;;1.48;;
53977;SDS011;39886;47.984;-1.586;2023-08-30T08:48:01;2.10;;;1.25;;
53977;SDS011;39886;47.984;-1.586;2023-08-30T08:50:29;2.72;;;1.48;;
53977;SDS011;39886;47.984;-1.586;2023-08-30T08:52:55;3.80;;;1.30;;
53977;SDS011;39886;47.984;-1.586;2023-08-30T08:55:22;1.92;;;1.25;;
53977;SDS011;39886;47.984;-1.586;2023-08-30T08:57:48;3.72;;;1.52;;
53977;SDS011;39886;47.984;-1.586;2023-08-30T09:00:14;3.55;;;1.40;;
53977;SDS011;39886;47.984;-1.586;2023-08-30T09:02:41;4.32;;;1.70;;
53977;SDS011;39886;47.984;-1.586;2023-08-30T09:05:08;5.32;;;1.30;;
53977;SDS011;39886;47.984;-1.586;2023-08-30T09:07:35;3.28;;;1.58;;
53977;SDS011;39886;47.984;-1.586;2023-08-30T09:10:01;5.13;;;1.55;;
53977;SDS011;39886;47.984;-1.586;2023-08-30T09:12:27;5.70;;;1.88;;
53977;SDS011;39886;47.984;-1.586;2023-08-30T09:14:57;2.97;;;1.52;;
53977;SDS011;39886;47.984;-1.586;2023-08-30T09:17:23;3.45;;;1.40;;
53977;SDS011;39886;47.984;-1.586;2023-08-30T09:20:05;6.53;;;1.80;;
53977;SDS011;39886;47.984;-1.586;2023-08-30T09:22:41;2.42;;;1.65;;
53977;SDS011;39886;47.984;-1.586;2023-08-30T09:25:08;5.85;;;1.95;;
53977;SDS011;39886;47.984;-1.586;2023-08-30T09:27:35;3.60;;;1.90;;
53977;SDS011;39886;47.984;-1.586;2023-08-30T09:30:04;5.32;;;1.90;;
53977;SDS011;39886;47.984;-1.586;2023-08-30T09:32:37;6.32;;;1.90;;
53977;SDS011;39886;47.984;-1.586;2023-08-30T09:35:07;7.03;;;1.77;;
53977;SDS011;39886;47.984;-1.586;2023-08-30T09:37:33;5.35;;;1.75;;
53977;SDS011;39886;47.984;-1.586;2023-08-30T09:39:59;5.03;;;1.70;;
53977;SDS011;39886;47.984;-1.586;2023-08-30T09:42:25;4.90;;;1.70;;
53977;SDS011;39886;47.984;-1.586;2023-08-30T09:44:51;5.13;;;1.70;;
53977;SDS011;39886;47.984;-1.586;2023-08-30T09:47:17;6.20;;;2.05;;
53977;SDS011;39886;47.984;-1.586;2023-08-30T09:49:44;5.10;;;1.90;;
53977;SDS011;39886;47.984;-1.586;2023-08-30T09:52:11;5.43;;;1.90;;
53977;SDS011;39886;47.984;-1.586;2023-08-30T09:54:40;5.75;;;2.13;;
53977;SDS011;39886;47.984;-1.586;2023-08-30T09:57:09;5.78;;;1.73;;
53977;SDS011;39886;47.984;-1.586;2023-08-30T09:59:35;5.63;;;2.08;;
53977;SDS011;39886;47.984;-1.586;2023-08-30T10:02:03;5.38;;;1.75;;
53977;SDS011;39886;47.984;-1.586;2023-08-30T10:04:29;3.72;;;1.55;;
53977;SDS011;39886;47.984;-1.586;2023-08-30T10:06:57;6.22;;;1.85;;
53977;SDS011;39886;47.984;-1.586;2023-08-30T10:09:24;5.30;;;2.05;;
53977;SDS011;39886;47.984;-1.586;2023-08-30T10:11:50;4.55;;;2.03;;
53977;SDS011;39886;47.984;-1.586;2023-08-30T10:14:16;4.63;;;2.25;;
53977;SDS011;39886;47.984;-1.586;2023-08-30T10:16:44;6.25;;;1.90;;
53977;SDS011;39886;47.984;-1.586;2023-08-30T10:21:53;5.45;;;1.90;;
53977;SDS011;39886;47.984;-1.586;2023-08-30T10:24:28;6.55;;;1.70;;
53977;SDS011;39886;47.984;-1.586;2023-08-30T10:26:55;4.47;;;1.67;;
53977;SDS011;39886;47.984;-1.586;2023-08-30T10:29:22;3.22;;;1.92;;
53977;SDS011;39886;47.984;-1.586;2023-08-30T10:31:49;4.70;;;1.70;;
53977;SDS011;39886;47.984;-1.586;2023-08-30T10:34:16;5.47;;;2.00;;
53977;SDS011;39886;47.984;-1.586;2023-08-30T10:36:43;6.10;;;2.20;;
53977;SDS011;39886;47.984;-1.586;2023-08-30T10:39:12;2.33;;;1.50;;
53977;SDS011;39886;47.984;-1.586;2023-08-30T10:41:55;6.68;;;2.00;;
53977;SDS011;39886;47.984;-1.586;2023-08-30T10:44:21;5.23;;;2.30;;
53977;SDS011;39886;47.984;-1.586;2023-08-30T10:46:54;4.93;;;1.70;;
53977;SDS011;39886;47.984;-1.586;2023-08-30T10:49:21;5.57;;;2.10;;
53977;SDS011;39886;47.984;-1.586;2023-08-30T10:51:56;6.03;;;1.98;;
53977;SDS011;39886;47.984;-1.586;2023-08-30T10:54:23;3.28;;;1.55;;
53977;SDS011;39886;47.984;-1.586;2023-08-30T10:56:57;3.55;;;1.58;;
53977;SDS011;39886;47.984;-1.586;2023-08-30T10:59:25;4.65;;;1.70;;
53977;SDS011;39886;47.984;-1.586;2023-08-30T11:01:52;4.65;;;1.90;;
53977;SDS011;39886;47.984;-1.586;2023-08-30T11:04:18;4.80;;;2.03;;
53977;SDS011;39886;47.984;-1.586;2023-08-30T11:06:46;5.90;;;1.73;;
53977;SDS011;39886;47.984;-1.586;2023-08-30T11:09:13;3.90;;;1.77;;
53977;SDS011;39886;47.984;-1.586;2023-08-30T11:11:43;3.60;;;1.50;;
53977;SDS011;39886;47.984;-1.586;2023-08-30T11:14:09;5.78;;;1.90;;
53977;SDS011;39886;47.984;-1.586;2023-08-30T11:16:35;4.78;;;1.88;;
53977;SDS011;39886;47.984;-1.586;2023-08-30T11:19:02;3.08;;;1.60;;
53977;SDS011;39886;47.984;-1.586;2023-08-30T11:21:33;3.55;;;1.63;;
53977;SDS011;39886;47.984;-1.586;2023-08-30T11:24:00;3.17;;;1.85;;
53977;SDS011;39886;47.984;-1.586;2023-08-30T11:26:25;2.88;;;1.70;;
53977;SDS011;39886;47.984;-1.586;2023-08-30T11:28:51;3.83;;;1.88;;
53977;SDS011;39886;47.984;-1.586;2023-08-30T11:31:26;5.18;;;1.40;;
53977;SDS011;39886;47.984;-1.586;2023-08-30T11:33:53;4.80;;;1.67;;
53977;SDS011;39886;47.984;-1.586;2023-08-30T11:36:21;6.28;;;1.67;;
53977;SDS011;39886;47.984;-1.586;2023-08-30T11:38:48;4.38;;;1.63;;
53977;SDS011;39886;47.984;-1.586;2023-08-30T11:41:15;6.53;;;2.00;;
53977;SDS011;39886;47.984;-1.586;2023-08-30T11:43:41;5.05;;;2.10;;
53977;SDS011;39886;47.984;-1.586;2023-08-30T11:46:08;4.10;;;2.03;;
53977;SDS011;39886;47.984;-1.586;2023-08-30T11:48:34;2.60;;;1.48;;
53977;SDS011;39886;47.984;-1.586;2023-08-30T11:51:00;4.88;;;1.67;;
53977;SDS011;39886;47.984;-1.586;2023-08-30T11:53:26;4.55;;;1.60;;
53977;SDS011;39886;47.984;-1.586;2023-08-30T11:55:53;4.22;;;1.60;;
53977;SDS011;39886;47.984;-1.586;2023-08-30T11:58:19;3.60;;;1.80;;
53977;SDS011;39886;47.984;-1.586;2023-08-30T12:00:45;4.60;;;2.10;;
53977;SDS011;39886;47.984;-1.586;2023-08-30T12:03:13;3.70;;;1.50;;
53977;SDS011;39886;47.984;-1.586;2023-08-30T12:05:45;3.28;;;1.77;;
53977;SDS011;39886;47.984;-1.586;2023-08-30T12:08:21;3.78;;;1.88;;
53977;SDS011;39886;47.984;-1.586;2023-08-30T12:10:51;2.95;;;1.52;;
53977;SDS011;39886;47.984;-1.586;2023-08-30T12:15:46;6.40;;;2.00;;
53977;SDS011;39886;47.984;-1.586;2023-08-30T12:18:12;6.22;;;1.90;;
53977;SDS011;39886;47.984;-1.586;2023-08-30T12:20:37;6.85;;;2.08;;
53977;SDS011;39886;47.984;-1.586;2023-08-30T12:23:03;10.60;;;2.28;;
53977;SDS011;39886;47.984;-1.586;2023-08-30T12:25:29;10.95;;;2.58;;
53977;SDS011;39886;47.984;-1.586;2023-08-30T12:27:56;6.47;;;1.98;;
53977;SDS011;39886;47.984;-1.586;2023-08-30T12:30:21;6.45;;;1.92;;
53977;SDS011;39886;47.984;-1.586;2023-08-30T12:32:47;6.07;;;2.17;;
53977;SDS011;39886;47.984;-1.586;2023-08-30T12:35:13;6.40;;;2.22;;
53977;SDS011;39886;47.984;-1.586;2023-08-30T12:37:39;8.27;;;2.47;;
53977;SDS011;39886;47.984;-1.586;2023-08-30T12:40:05;8.27;;;2.10;;
53977;SDS011;39886;47.984;-1.586;2023-08-30T12:42:32;6.90;;;2.00;;
53977;SDS011;39886;47.984;-1.586;2023-08-30T12:44:58;6.97;;;2.22;;
53977;SDS011;39886;47.984;-1.586;2023-08-30T12:47:24;6.13;;;2.42;;
53977;SDS011;39886;47.984;-1.586;2023-08-30T12:49:50;9.13;;;2.55;;
53977;SDS011;39886;47.984;-1.586;2023-08-30T12:52:15;6.07;;;2.05;;
53977;SDS011;39886;47.984;-1.586;2023-08-30T12:54:42;6.15;;;2.08;;
53977;SDS011;39886;47.984;-1.586;2023-08-30T12:57:08;8.30;;;2.03;;
53977;SDS011;39886;47.984;-1.586;2023-08-30T12:59:34;8.13;;;1.92;;
53977;SDS011;39886;47.984;-1.586;2023-08-30T13:01:59;5.60;;;2.00;;
53977;SDS011;39886;47.984;-1.586;2023-08-30T13:04:25;6.95;;;2.15;;
53977;SDS011;39886;47.984;-1.586;2023-08-30T13:06:51;13.18;;;2.08;;
53977;SDS011;39886;47.984;-1.586;2023-08-30T13:09:17;7.05;;;2.40;;
53977;SDS011;39886;47.984;-1.586;2023-08-30T13:11:42;4.50;;;1.88;;
53977;SDS011;39886;47.984;-1.586;2023-08-30T13:14:08;6.70;;;2.83;;
53977;SDS011;39886;47.984;-1.586;2023-08-30T13:16:34;6.82;;;2.33;;
53977;SDS011;39886;47.984;-1.586;2023-08-30T13:19:00;6.60;;;2.10;;
53977;SDS011;39886;47.984;-1.586;2023-08-30T13:21:26;7.30;;;2.25;;
53977;SDS011;39886;47.984;-1.586;2023-08-30T13:23:52;7.72;;;2.10;;
53977;SDS011;39886;47.984;-1.586;2023-08-30T13:26:17;8.95;;;2.45;;
53977;SDS011;39886;47.984;-1.586;2023-08-30T13:28:43;8.93;;;2.00;;
53977;SDS011;39886;47.984;-1.586;2023-08-30T13:31:09;8.40;;;2.63;;
53977;SDS011;39886;47.984;-1.586;2023-08-30T13:33:34;7.78;;;2.28;;
53977;SDS011;39886;47.984;-1.586;2023-08-30T13:36:00;7.00;;;2.25;;
53977;SDS011;39886;47.984;-1.586;2023-08-30T13:38:27;8.82;;;2.75;;
53977;SDS011;39886;47.984;-1.586;2023-08-30T13:40:57;7.47;;;2.15;;
53977;SDS011;39886;47.984;-1.586;2023-08-30T13:43:25;6.65;;;2.28;;
53977;SDS011;39886;47.984;-1.586;2023-08-30T13:45:56;8.05;;;2.10;;
53977;SDS011;39886;47.984;-1.586;2023-08-30T13:48:23;7.38;;;2.35;;
53977;SDS011;39886;47.984;-1.586;2023-08-30T13:50:49;9.13;;;2.63;;
53977;SDS011;39886;47.984;-1.586;2023-08-30T13:53:15;5.38;;;2.03;;
53977;SDS011;39886;47.984;-1.586;2023-08-30T13:55:44;6.88;;;2.53;;
53977;SDS011;39886;47.984;-1.586;2023-08-30T13:58:11;6.43;;;2.22;;
53977;SDS011;39886;47.984;-1.586;2023-08-30T14:00:36;7.82;;;2.30;;
53977;SDS011;39886;47.984;-1.586;2023-08-30T14:03:02;7.07;;;2.58;;
53977;SDS011;39886;47.984;-1.586;2023-08-30T14:05:28;8.15;;;2.60;;
53977;SDS011;39886;47.984;-1.586;2023-08-30T14:07:53;9.98;;;2.38;;
53977;SDS011;39886;47.984;-1.586;2023-08-30T14:10:19;6.78;;;2.47;;
53977;SDS011;39886;47.984;-1.586;2023-08-30T14:12:45;10.68;;;2.45;;
53977;SDS011;39886;47.984;-1.586;2023-08-30T14:15:11;8.40;;;2.33;;
53977;SDS011;39886;47.984;-1.586;2023-08-30T14:17:37;6.82;;;2.22;;
53977;SDS011;39886;47.984;-1.586;2023-08-30T14:20:03;7.90;;;2.25;;
53977;SDS011;39886;47.984;-1.586;2023-08-30T14:22:29;5.75;;;1.98;;
53977;SDS011;39886;47.984;-1.586;2023-08-30T14:24:55;7.57;;;2.25;;
53977;SDS011;39886;47.984;-1.586;2023-08-30T14:27:21;6.18;;;2.08;;
53977;SDS011;39886;47.984;-1.586;2023-08-30T14:29:46;7.93;;;2.03;;
53977;SDS011;39886;47.984;-1.586;2023-08-30T14:32:12;4.18;;;2.20;;
53977;SDS011;39886;47.984;-1.586;2023-08-30T14:34:38;9.50;;;2.22;;
53977;SDS011;39886;47.984;-1.586;2023-08-30T14:37:03;10.90;;;2.63;;
53977;SDS011;39886;47.984;-1.586;2023-08-30T14:39:29;8.80;;;2.40;;
53977;SDS011;39886;47.984;-1.586;2023-08-30T14:41:55;4.88;;;1.95;;
53977;SDS011;39886;47.984;-1.586;2023-08-30T14:44:20;7.00;;;2.20;;
53977;SDS011;39886;47.984;-1.586;2023-08-30T14:46:46;5.97;;;2.03;;